Etusivu
METAR-TAF:

METAR-TAF

Lentoasemat :

Fillmore County Airport

Preston, Minnesota, Yhdysvallat

Leveyspiiri: 43-40-36N, Pituuspiiri: 092-10-47W, korkeus merenpinnasta: 389 m

Tämänhetkinen sää

Tämä raportti tehtiin 22 minuuttia sitten, kello 14.16 UTC
Tuuli 7 kn lounaasta
Lämpötila 19°C
Kosteus 88%
Ilmanpaine 1013 hPa
Näkyvyys: 4.0 km
Hajanaisia pilviä 900 ft:n korkeudessa
Hajonneita pilviä 2700 ft:n korkeudessa
Pilvistä 3800 ft:n korkeudessa
heikkoa sadetta

METAR: KFKA 251416Z AUTO 23007KT 2 1/2SM -RA SCT009 BKN027 OVC038 19/17 A2990 RMK AO2 LTG DSNT N P0001 T01880172

Aika: 09:38 (14:38 UTC)


TAF: puuttuu

Säähavainnot ja -ennusteet yli 4000 lentoasemalta (METAR- ja TAF-raportit).

Käytössä olevat sääasemat on merkitty karttaan keltaisilla ja punaisilla pisteillä.

Aseta hiiri pisteen päälle nähdäksesi sääaseman nimen.

Klikkaa sitten nähdäksesi säähavainnot ja -ennusteet.

Kartan vaihtaminen: klikkaa mustalla rastilla varustettuja vihreitä pisteitä, niin voit zoomata sisään; viivalla varustettua vihreää pistettä, niin voit zoomata ulos tai vihreitä nuolia, niin pääset viereisille kartoille.


METAR-TAF: